Time;durP1;ratioP1;P1;durP2;ratioP2;P2;SDS_P1;SDS_P2;PMS_P1;PMS_P2;Temp;Humidity;BMP_temperature;BMP_pressure;BME280_temperature;BME280_humidity;BME280_pressure;Samples;Min_cycle;Max_cycle;Signal;HPM_P1;HPM_P2
2023/09/11 00:01:33;;;;;;;42.70;25.98;;;;;;;16.74;58.45;101532.00;5024731;28;20048;-69
2023/09/11 00:03:59;;;;;;;40.08;25.20;;;;;;;16.73;58.94;101533.78;5023587;28;20040;-71
2023/09/11 00:06:25;;;;;;;39.60;24.35;;;;;;;16.76;58.25;101535.44;5024544;28;20044;-72
2023/09/11 00:08:51;;;;;;;41.85;26.80;;;;;;;16.69;58.54;101529.59;5023228;28;20071;-72
2023/09/11 00:11:17;;;;;;;43.95;25.55;;;;;;;16.62;58.82;101521.19;5020662;28;20117;-71
2023/09/11 00:13:43;;;;;;;42.80;26.67;;;;;;;16.61;59.08;101518.63;5024056;28;20257;-69
2023/09/11 00:16:08;;;;;;;43.55;25.10;;;;;;;16.60;59.25;101517.78;5038200;28;20106;-69
2023/09/11 00:18:33;;;;;;;43.35;26.23;;;;;;;16.65;59.05;101520.16;5024327;28;20105;-69
2023/09/11 00:20:59;;;;;;;44.33;27.23;;;;;;;16.62;58.82;101504.47;5010277;28;20039;-69
2023/09/11 00:23:24;;;;;;;38.65;24.85;;;;;;;16.59;58.97;101509.94;5022764;28;20483;-69
2023/09/11 00:25:50;;;;;;;44.53;28.02;;;;;;;16.55;59.30;101506.59;5040213;28;20538;-69
2023/09/11 00:28:15;;;;;;;49.05;27.88;;;;;;;16.60;58.99;101503.72;5018905;28;20735;-69
2023/09/11 00:30:41;;;;;;;41.40;25.35;;;;;;;16.63;59.35;101493.00;5025892;28;20036;-71
2023/09/11 00:33:07;;;;;;;48.95;28.60;;;;;;;16.55;59.55;101493.41;5018854;28;20555;-71
2023/09/11 00:35:32;;;;;;;49.80;28.90;;;;;;;16.57;59.29;101495.97;5023558;28;20025;-71
2023/09/11 00:37:58;;;;;;;43.42;26.55;;;;;;;16.63;59.19;101498.28;5021017;28;20037;-72
2023/09/11 00:40:23;;;;;;;46.60;28.65;;;;;;;16.57;59.15;101490.69;5026788;28;20485;-68
2023/09/11 00:42:49;;;;;;;44.67;28.85;;;;;;;16.60;58.81;101485.25;5022620;28;20161;-70
2023/09/11 00:45:14;;;;;;;44.03;26.95;;;;;;;16.53;59.24;101489.16;5026853;28;20033;-70
2023/09/11 00:47:42;;;;;;;50.20;30.02;;;;;;;16.56;58.83;101486.34;5038972;28;20453;-70
2023/09/11 00:50:09;;;;;;;50.15;29.30;;;;;;;16.59;58.70;101484.38;5022910;28;20090;-70
2023/09/11 00:52:35;;;;;;;43.33;26.92;;;;;;;16.69;58.71;101479.47;5007140;28;20041;-69
2023/09/11 00:55:02;;;;;;;46.25;30.35;;;;;;;16.61;58.68;101479.88;5021953;28;20406;-69
2023/09/11 00:57:28;;;;;;;49.65;30.35;;;;;;;16.56;59.29;101473.16;5036508;28;20032;-70
2023/09/11 00:59:54;;;;;;;49.47;29.23;;;;;;;16.54;59.16;101469.75;5021260;28;20589;-70
2023/09/11 01:02:21;;;;;;;48.72;28.60;;;;;;;16.56;58.96;101474.00;5021506;28;20024;-70
2023/09/11 01:04:48;;;;;;;53.08;31.45;;;;;;;16.46;59.04;101477.25;5023762;28;20032;-70
2023/09/11 01:07:14;;;;;;;57.45;31.15;;;;;;;16.54;59.05;101477.69;5026453;28;20033;-69
2023/09/11 01:09:41;;;;;;;49.83;30.73;;;;;;;16.57;59.24;101470.41;5025312;28;20486;-70
2023/09/11 01:12:07;;;;;;;52.83;29.77;;;;;;;16.58;58.52;101469.50;5021820;28;20025;-69
2023/09/11 01:14:33;;;;;;;49.17;29.63;;;;;;;16.54;58.74;101470.59;5022971;28;20136;-69
2023/09/11 01:17:30;;;;;;;53.03;31.70;;;;;;;16.55;58.97;101471.44;5042494;28;20095;-69
2023/09/11 01:20:14;;;;;;;56.70;32.65;;;;;;;16.52;58.68;101467.19;5024278;28;20045;-69
2023/09/11 01:22:56;;;;;;;53.90;30.85;;;;;;;16.47;58.97;101463.13;5022699;28;20052;-69
2023/09/11 01:25:59;;;;;;;52.70;30.08;;;;;;;16.43;59.04;101462.44;5020495;28;20123;-69
2023/09/11 01:29:03;;;;;;;59.50;30.77;;;;;;;16.48;58.91;101470.09;5036502;28;20061;-69
2023/09/11 01:31:31;;;;;;;50.20;28.27;;;;;;;16.53;58.69;101457.47;4948225;28;20038;-69
2023/09/11 01:34:01;;;;;;;50.53;28.20;;;;;;;16.56;58.35;101467.88;5011465;28;20132;-69
2023/09/11 01:36:26;;;;;;;48.17;27.88;;;;;;;16.51;58.36;101460.22;5005167;28;20057;-69
2023/09/11 01:38:52;;;;;;;50.55;30.83;;;;;;;16.50;58.21;101458.50;5021663;28;20091;-68
2023/09/11 01:41:20;;;;;;;44.45;28.83;;;;;;;16.44;58.48;101453.56;5021781;28;20036;-69
2023/09/11 01:43:48;;;;;;;57.40;30.77;;;;;;;16.42;58.80;101460.75;5028301;28;20160;-70
2023/09/11 01:46:16;;;;;;;48.60;30.48;;;;;;;16.47;58.77;101463.13;5020202;28;20033;-71
2023/09/11 01:48:42;;;;;;;52.33;30.13;;;;;;;16.42;58.47;101458.94;5023576;28;20394;-72
2023/09/11 01:51:08;;;;;;;46.65;28.48;;;;;;;16.42;58.25;101456.31;5023502;28;20033;-71
2023/09/11 01:53:34;;;;;;;49.20;30.65;;;;;;;16.40;58.49;101450.28;5042928;28;20037;-69
2023/09/11 01:56:00;;;;;;;55.40;32.92;;;;;;;16.33;58.67;101451.56;5021131;28;20020;-68
2023/09/11 01:58:26;;;;;;;42.63;26.85;;;;;;;16.34;58.63;101447.13;5023563;28;20167;-68
2023/09/11 02:00:51;;;;;;;49.22;29.75;;;;;;;16.32;58.57;101449.00;5020231;28;20463;-69
2023/09/11 02:03:17;;;;;;;47.63;29.50;;;;;;;16.27;58.58;101449.25;5018707;28;20050;-68
2023/09/11 02:05:42;;;;;;;49.45;31.00;;;;;;;16.25;58.59;101451.13;5038339;28;20052;-69
2023/09/11 02:08:07;;;;;;;40.83;26.88;;;;;;;16.25;58.53;101448.47;5020247;28;21545;-68
2023/09/11 02:10:33;;;;;;;52.53;29.23;;;;;;;16.38;58.45;101441.59;5036725;28;20577;-67
2023/09/11 02:12:58;;;;;;;41.60;25.92;;;;;;;16.38;58.25;101444.22;5022279;28;20045;-67
2023/09/11 02:15:24;;;;;;;47.17;28.30;;;;;;;16.29;58.42;101441.25;5026046;28;20028;-67
2023/09/11 02:17:49;;;;;;;45.53;25.98;;;;;;;16.30;58.49;101440.31;5021459;28;20044;-67
2023/09/11 02:20:15;;;;;;;36.75;24.73;;;;;;;16.24;58.50;101433.56;5020194;28;20039;-67
2023/09/11 02:22:40;;;;;;;41.70;26.77;;;;;;;16.24;58.46;101430.09;5025072;28;20087;-67
2023/09/11 02:25:06;;;;;;;47.25;27.02;;;;;;;16.18;58.40;101432.13;5021383;28;20033;-67
2023/09/11 02:27:31;;;;;;;48.75;29.52;;;;;;;16.14;58.74;101424.47;5022387;28;20051;-67
2023/09/11 02:29:57;;;;;;;55.45;32.60;;;;;;;16.07;59.00;101418.69;5022867;28;20216;-69
2023/09/11 02:32:22;;;;;;;52.72;30.98;;;;;;;16.05;59.34;101414.44;5018373;28;20045;-68
2023/09/11 02:34:48;;;;;;;61.67;32.33;;;;;;;16.03;59.25;101408.41;5024921;28;20029;-69
2023/09/11 02:37:13;;;;;;;57.15;33.30;;;;;;;15.98;59.48;101398.06;5037709;28;20094;-69
2023/09/11 02:39:39;;;;;;;53.30;32.67;;;;;;;15.97;59.54;101389.31;5021750;28;20616;-69
2023/09/11 02:42:04;;;;;;;61.05;32.83;;;;;;;15.98;59.39;101385.75;5041810;28;20052;-69
2023/09/11 02:44:30;;;;;;;51.92;32.50;;;;;;;15.96;59.41;101389.41;5033236;28;20090;-68
2023/09/11 02:46:55;;;;;;;53.00;30.40;;;;;;;15.95;59.58;101393.81;5027467;28;20033;-67
2023/09/11 02:49:21;;;;;;;55.95;32.53;;;;;;;15.96;59.33;101392.03;5033151;28;20062;-68
2023/09/11 02:51:46;;;;;;;52.97;31.85;;;;;;;15.98;59.37;101398.91;5023775;28;20375;-66
2023/09/11 02:54:12;;;;;;;57.22;32.33;;;;;;;16.05;59.35;101398.63;5017520;28;20116;-68
2023/09/11 02:56:38;;;;;;;45.78;27.08;;;;;;;16.15;59.20;101399.81;5022996;28;20779;-66
2023/09/11 02:59:05;;;;;;;54.83;30.30;;;;;;;16.10;58.87;101392.16;5023534;28;20033;-69
2023/09/11 03:01:31;;;;;;;55.05;31.33;;;;;;;15.97;58.79;101381.41;5020202;28;20060;-68
2023/09/11 03:03:57;;;;;;;51.03;29.60;;;;;;;15.98;59.09;101383.09;5002533;28;20102;-69
2023/09/11 03:06:22;;;;;;;46.67;28.38;;;;;;;15.95;58.84;101380.66;5020661;28;20040;-66
2023/09/11 03:08:48;;;;;;;46.72;27.42;;;;;;;15.99;58.78;101379.56;5022443;28;20043;-71
2023/09/11 03:11:13;;;;;;;50.10;30.73;;;;;;;15.97;58.42;101385.81;5020547;28;20033;-70
2023/09/11 03:13:39;;;;;;;52.78;31.00;;;;;;;15.87;58.58;101379.34;5034608;28;21065;-67
2023/09/11 03:16:09;;;;;;;52.22;30.58;;;;;;;15.82;59.03;101370.81;5024306;28;20116;-67
2023/09/11 03:18:35;;;;;;;46.95;28.50;;;;;;;15.80;59.26;101365.66;5038903;28;20052;-67
2023/09/11 03:21:02;;;;;;;52.15;30.40;;;;;;;15.75;59.13;101359.78;5026970;28;20037;-67
2023/09/11 03:23:29;;;;;;;44.80;26.55;;;;;;;15.82;59.08;101371.69;5034337;28;20087;-67
2023/09/11 03:25:54;;;;;;;44.08;28.20;;;;;;;15.87;58.76;101363.53;5020581;28;20029;-67
2023/09/11 03:28:20;;;;;;;39.75;24.88;;;;;;;15.91;58.50;101363.28;5005787;28;20094;-69
2023/09/11 03:30:46;;;;;;;38.92;24.27;;;;;;;15.90;58.48;101363.38;5025778;28;20064;-71
2023/09/11 03:33:11;;;;;;;40.55;24.85;;;;;;;15.95;58.34;101367.47;5020652;28;20045;-73
2023/09/11 03:35:37;;;;;;;45.65;26.83;;;;;;;15.92;58.21;101367.63;5038960;28;20117;-75
2023/09/11 03:38:03;;;;;;;41.45;27.52;;;;;;;15.84;58.10;101374.22;5018563;28;20588;-69
2023/09/11 03:40:29;;;;;;;46.15;28.85;;;;;;;15.80;58.56;101368.31;5018052;28;20029;-68
2023/09/11 03:42:55;;;;;;;48.33;29.73;;;;;;;15.78;58.41;101370.16;5005789;28;20523;-69
2023/09/11 03:45:21;;;;;;;41.63;24.50;;;;;;;15.80;58.34;101371.78;5019622;28;20044;-72
2023/09/11 03:47:46;;;;;;;37.67;24.85;;;;;;;15.82;58.63;101371.69;5007103;28;20033;-69
2023/09/11 03:50:12;;;;;;;41.67;25.13;;;;;;;15.73;58.60;101372.22;5009061;28;20039;-70
2023/09/11 03:52:37;;;;;;;43.15;26.20;;;;;;;15.67;58.55;101362.84;5015598;28;20454;-68
2023/09/11 03:55:03;;;;;;;42.85;26.63;;;;;;;15.65;58.53;101359.44;5019704;28;20033;-70
2023/09/11 03:57:29;;;;;;;46.35;28.33;;;;;;;15.59;59.15;101351.84;5019852;28;20098;-70
2023/09/11 03:59:55;;;;;;;43.83;26.02;;;;;;;15.60;58.90;101350.94;5041796;28;20029;-69
2023/09/11 04:02:21;;;;;;;42.13;27.48;;;;;;;15.55;59.21;101352.94;5005729;28;20032;-72
2023/09/11 04:04:47;;;;;;;44.10;25.65;;;;;;;15.55;59.03;101348.53;5021191;28;20029;-74
2023/09/11 04:07:12;;;;;;;48.92;27.75;;;;;;;15.55;59.26;101343.28;5021218;28;20033;-66
2023/09/11 04:09:37;;;;;;;45.03;26.88;;;;;;;15.55;59.25;101342.41;5032047;28;20032;-69
2023/09/11 04:12:03;;;;;;;41.85;27.15;;;;;;;15.53;59.31;101345.13;5020155;28;20025;-68
2023/09/11 04:14:29;;;;;;;45.60;25.42;;;;;;;15.61;59.00;101335.97;5018717;28;20037;-69
2023/09/11 04:16:56;;;;;;;44.90;26.30;;;;;;;15.61;59.11;101338.59;5042005;28;20026;-71
2023/09/11 04:19:22;;;;;;;42.38;26.63;;;;;;;15.62;59.03;101340.28;5017905;28;20040;-68
2023/09/11 04:21:48;;;;;;;44.50;26.77;;;;;;;15.59;58.67;101344.81;5018275;28;20049;-70
2023/09/11 04:24:13;;;;;;;43.30;27.55;;;;;;;15.55;59.06;101338.00;4997776;28;20515;-71
2023/09/11 04:26:41;;;;;;;45.53;29.38;;;;;;;15.54;59.02;101333.66;5021201;28;20036;-71
2023/09/11 04:29:11;;;;;;;44.47;27.60;;;;;;;15.59;58.98;101330.78;5026800;28;20034;-69
2023/09/11 04:31:40;;;;;;;46.85;29.15;;;;;;;15.57;59.06;101330.88;5038278;28;20025;-68
2023/09/11 04:34:07;;;;;;;42.30;27.67;;;;;;;15.62;58.87;101332.38;5038912;28;20099;-68
2023/09/11 04:36:33;;;;;;;41.13;27.40;;;;;;;15.65;58.37;101321.69;5022970;28;20529;-71
2023/09/11 04:38:58;;;;;;;40.38;24.52;;;;;;;15.65;58.78;101337.50;5028864;28;20037;-69
2023/09/11 04:41:23;;;;;;;39.00;25.85;;;;;;;15.64;58.53;101334.03;5025152;28;20040;-69
2023/09/11 04:43:49;;;;;;;42.13;25.08;;;;;;;15.61;58.71;101335.97;5026702;28;20164;-70
2023/09/11 04:46:16;;;;;;;40.67;27.65;;;;;;;15.61;58.78;101335.97;5021798;28;20433;-68
2023/09/11 04:48:42;;;;;;;40.22;26.05;;;;;;;15.58;59.05;101335.19;5016910;28;20049;-67
2023/09/11 04:51:08;;;;;;;35.40;23.00;;;;;;;15.63;58.66;101332.31;5026291;28;20022;-68
2023/09/11 04:53:33;;;;;;;37.97;25.52;;;;;;;15.62;58.59;101327.09;5018745;28;20049;-67
2023/09/11 04:55:59;;;;;;;38.63;24.65;;;;;;;15.57;58.46;101322.97;5030145;28;20032;-67
2023/09/11 04:58:25;;;;;;;38.80;24.27;;;;;;;15.59;58.52;101322.88;5004603;28;20083;-67
2023/09/11 05:00:52;;;;;;;37.75;24.13;;;;;;;15.67;58.54;101325.09;5023008;28;20021;-68
2023/09/11 05:03:18;;;;;;;34.53;23.00;;;;;;;15.70;58.14;101319.66;5032430;28;20116;-68
2023/09/11 05:05:44;;;;;;;42.03;27.48;;;;;;;15.67;58.33;101322.47;5036672;28;20219;-69
2023/09/11 05:08:11;;;;;;;38.13;25.10;;;;;;;15.64;58.40;101325.25;5017727;28;20041;-68
2023/09/11 05:10:44;;;;;;;37.03;24.63;;;;;;;15.68;58.28;101321.50;5007859;28;20029;-68
2023/09/11 05:13:14;;;;;;;38.47;24.48;;;;;;;15.68;58.50;101324.16;5015786;28;20082;-68
2023/09/11 05:15:43;;;;;;;37.05;23.05;;;;;;;15.72;58.07;101317.78;5031982;28;20021;-68
2023/09/11 05:18:10;;;;;;;33.53;22.60;;;;;;;15.84;57.97;101327.66;5021142;28;20388;-68
2023/09/11 05:20:37;;;;;;;34.80;23.10;;;;;;;15.89;58.04;101322.13;5040345;28;20140;-67
2023/09/11 05:23:03;;;;;;;37.47;25.00;;;;;;;15.93;57.68;101326.28;5036595;28;20044;-70
2023/09/11 05:25:28;;;;;;;35.67;22.52;;;;;;;16.02;57.47;101319.69;5021761;28;20585;-68
2023/09/11 05:27:54;;;;;;;38.17;23.02;;;;;;;16.05;57.50;101324.81;5021964;28;20045;-69
2023/09/11 05:30:20;;;;;;;34.85;22.73;;;;;;;16.11;57.20;101319.19;5023097;28;20041;-68
2023/09/11 05:32:51;;;;;;;34.92;23.23;;;;;;;16.18;57.46;101328.44;5014162;28;20718;-68
2023/09/11 05:35:17;;;;;;;33.72;22.67;;;;;;;16.21;56.71;101315.06;5031573;28;20029;-68
2023/09/11 05:37:43;;;;;;;37.53;23.45;;;;;;;16.35;56.86;101323.06;5019504;28;20513;-68
2023/09/11 05:40:11;;;;;;;29.95;21.55;;;;;;;16.53;56.07;101320.28;5021893;28;20098;-69
2023/09/11 05:42:36;;;;;;;33.75;21.77;;;;;;;16.59;55.63;101325.19;5019951;28;20054;-68
2023/09/11 05:45:03;;;;;;;30.45;17.85;;;;;;;16.83;55.87;101325.59;5023414;28;20055;-68
2023/09/11 05:47:31;;;;;;;26.10;18.45;;;;;;;16.96;55.23;101328.34;5030016;28;20489;-69
2023/09/11 05:50:00;;;;;;;33.22;21.40;;;;;;;16.91;54.78;101322.47;5042617;28;20020;-68
2023/09/11 05:52:29;;;;;;;27.85;20.40;;;;;;;16.91;54.53;101323.34;5057795;28;20036;-68
2023/09/11 05:54:54;;;;;;;31.55;20.85;;;;;;;16.93;54.57;101318.78;5065103;28;20037;-68
2023/09/11 05:57:20;;;;;;;31.45;20.58;;;;;;;17.12;54.35;101320.34;5042772;28;20728;-70
2023/09/11 05:59:49;;;;;;;26.58;19.50;;;;;;;17.11;54.11;101318.63;5040130;28;20048;-68
2023/09/11 06:02:19;;;;;;;29.30;20.75;;;;;;;17.36;53.68;101321.50;5026013;28;20083;-68
2023/09/11 06:04:45;;;;;;;29.88;20.80;;;;;;;18.22;52.39;101331.09;5021964;28;20028;-68
2023/09/11 06:07:11;;;;;;;27.40;19.25;;;;;;;19.64;48.90;101317.91;5023526;28;20060;-69
2023/09/11 06:09:37;;;;;;;30.92;21.80;;;;;;;20.79;45.72;101311.19;5021082;28;20040;-68
2023/09/11 06:12:03;;;;;;;25.00;16.17;;;;;;;21.55;42.96;101300.88;5021248;28;20087;-68
2023/09/11 06:14:30;;;;;;;23.17;15.93;;;;;;;22.12;41.95;101302.47;5021142;28;20127;-68
2023/09/11 06:17:03;;;;;;;21.75;15.00;;;;;;;22.59;40.54;101308.28;5023123;28;20024;-68
2023/09/11 06:19:28;;;;;;;20.50;15.07;;;;;;;22.63;39.76;101305.34;5027989;28;20072;-68
2023/09/11 06:21:54;;;;;;;18.13;14.52;;;;;;;23.00;40.11;101303.09;5019494;28;20028;-67
2023/09/11 06:24:19;;;;;;;19.30;13.82;;;;;;;23.33;38.73;101294.00;5020744;28;20043;-68
2023/09/11 06:26:45;;;;;;;19.92;14.82;;;;;;;23.40;38.76;101294.28;5019380;28;20056;-67
2023/09/11 06:29:12;;;;;;;19.67;13.27;;;;;;;23.59;38.23;101296.19;5020056;28;20049;-67
2023/09/11 06:31:37;;;;;;;17.50;12.52;;;;;;;24.42;38.57;101296.72;5039353;28;20032;-67
2023/09/11 06:34:03;;;;;;;15.27;12.70;;;;;;;24.87;36.20;101290.69;5021827;28;20423;-67
2023/09/11 06:36:29;;;;;;;19.33;12.70;;;;;;;25.47;34.93;101285.81;5018572;28;20021;-67
2023/09/11 06:38:55;;;;;;;15.30;11.70;;;;;;;26.00;33.48;101294.06;5016846;28;20076;-67
2023/09/11 06:41:20;;;;;;;17.70;12.70;;;;;;;26.84;32.11;101287.38;5021487;28;20033;-67
2023/09/11 06:43:46;;;;;;;15.63;11.38;;;;;;;27.29;32.37;101288.97;5019147;28;20063;-67
2023/09/11 06:46:11;;;;;;;19.85;10.55;;;;;;;28.17;30.42;101287.69;5010673;28;20037;-67
2023/09/11 06:48:37;;;;;;;16.77;11.30;;;;;;;27.47;32.35;101284.34;5016039;28;20080;-67
2023/09/11 06:51:03;;;;;;;15.13;11.38;;;;;;;28.34;30.66;101281.28;5020199;28;20032;-67
2023/09/11 06:53:28;;;;;;;10.73;8.93;;;;;;;28.72;30.16;101290.50;5016892;28;20049;-69
2023/09/11 06:55:55;;;;;;;13.35;10.32;;;;;;;28.67;30.06;101292.03;5033722;28;20049;-67
2023/09/11 06:58:20;;;;;;;12.43;9.75;;;;;;;28.85;29.79;101286.44;5019181;28;20044;-69
2023/09/11 07:00:46;;;;;;;11.75;10.55;;;;;;;28.96;29.16;101277.97;5017952;28;20561;-67
2023/09/11 07:03:12;;;;;;;16.05;9.95;;;;;;;28.86;29.18;101269.25;5035680;28;20061;-68
2023/09/11 07:05:38;;;;;;;11.02;9.32;;;;;;;29.29;29.09;101277.88;5018000;28;20041;-67
2023/09/11 07:08:04;;;;;;;8.95;7.32;;;;;;;30.40;27.60;101273.91;5019820;28;20046;-68
2023/09/11 07:10:29;;;;;;;17.08;9.98;;;;;;;30.60;27.25;101279.66;5020599;28;20036;-68
2023/09/11 07:12:55;;;;;;;16.60;9.93;;;;;;;29.60;28.43;101274.38;5010618;28;20044;-68
2023/09/11 07:15:20;;;;;;;11.60;10.35;;;;;;;28.91;29.28;101273.13;5022696;28;20720;-68
2023/09/11 07:17:48;;;;;;;14.52;9.40;;;;;;;29.07;30.46;101274.06;5032955;28;20041;-68
2023/09/11 07:20:14;;;;;;;8.32;7.60;;;;;;;30.66;27.74;101267.25;5018743;28;20029;-68
2023/09/11 07:22:40;;;;;;;12.32;9.30;;;;;;;30.94;27.53;101264.75;5019075;28;20049;-67
2023/09/11 07:25:11;;;;;;;12.55;7.95;;;;;;;30.74;27.85;101259.91;5036522;28;20509;-68
2023/09/11 07:27:39;;;;;;;11.77;8.40;;;;;;;30.42;28.15;101262.94;5014848;28;20517;-68
2023/09/11 07:30:09;;;;;;;11.68;8.20;;;;;;;30.65;28.10;101271.00;5022855;28;20112;-67
2023/09/11 07:32:34;;;;;;;9.82;7.70;;;;;;;31.67;27.06;101265.63;5020720;28;20537;-67
2023/09/11 07:35:00;;;;;;;8.23;5.95;;;;;;;32.06;26.30;101266.22;5024985;28;20065;-67
2023/09/11 07:37:28;;;;;;;11.13;8.60;;;;;;;32.98;24.48;101262.50;4991307;28;20111;-67
2023/09/11 07:39:54;;;;;;;10.05;7.50;;;;;;;32.47;25.63;101260.09;5021643;28;20186;-68
2023/09/11 07:42:19;;;;;;;8.38;6.93;;;;;;;32.33;25.47;101259.97;5004416;28;20037;-68
2023/09/11 07:44:47;;;;;;;12.57;8.15;;;;;;;32.26;25.87;101256.41;5016693;28;20781;-68
2023/09/11 07:47:13;;;;;;;12.30;7.05;;;;;;;32.28;25.85;101256.22;5015568;28;20494;-68
2023/09/11 07:49:38;;;;;;;15.43;8.05;;;;;;;32.39;25.74;101248.41;5015024;28;20048;-68
2023/09/11 07:52:04;;;;;;;13.52;6.75;;;;;;;32.37;25.71;101263.13;5022620;28;20167;-67
2023/09/11 07:54:31;;;;;;;10.23;6.65;;;;;;;32.17;26.16;101255.72;5015786;28;20041;-67
2023/09/11 07:56:57;;;;;;;10.60;7.28;;;;;;;31.79;26.74;101257.84;5015152;28;20037;-67
2023/09/11 07:59:22;;;;;;;7.68;6.95;;;;;;;31.38;27.12;101253.88;5017784;28;20401;-68
2023/09/11 08:01:48;;;;;;;18.40;7.65;;;;;;;31.75;27.24;101245.75;5021066;28;20615;-67
2023/09/11 08:04:13;;;;;;;20.45;11.73;;;;;;;31.08;28.00;101247.72;5020078;28;20554;-67
2023/09/11 08:06:39;;;;;;;11.25;7.15;;;;;;;32.36;27.87;101253.34;5020608;28;20059;-66
2023/09/11 08:09:04;;;;;;;8.43;6.50;;;;;;;33.68;25.39;101249.56;5020914;28;20068;-67
2023/09/11 08:11:34;;;;;;;8.18;6.28;;;;;;;34.62;24.50;101250.41;5004726;28;20040;-68
2023/09/11 08:14:02;;;;;;;14.85;6.18;;;;;;;33.72;24.13;101242.72;5012615;28;20122;-68
2023/09/11 08:16:29;;;;;;;12.75;5.70;;;;;;;33.81;24.53;101251.50;5023546;28;20029;-67
2023/09/11 08:18:54;;;;;;;8.68;6.63;;;;;;;33.76;23.89;101243.16;5017604;28;20135;-68
2023/09/11 08:21:21;;;;;;;10.05;6.03;;;;;;;33.43;25.16;101246.63;5023329;28;20037;-66
2023/09/11 08:23:49;;;;;;;10.70;5.78;;;;;;;33.23;25.34;101251.94;5018549;28;20053;-66
2023/09/11 08:26:15;;;;;;;11.18;5.38;;;;;;;33.53;24.79;101252.47;5021598;28;20041;-67
2023/09/11 08:28:41;;;;;;;10.95;5.40;;;;;;;33.35;26.11;101253.06;5019698;28;20041;-67
2023/09/11 08:31:07;;;;;;;10.07;5.68;;;;;;;33.19;24.93;101254.25;5026111;28;20599;-66
2023/09/11 08:33:35;;;;;;;12.23;6.07;;;;;;;32.72;26.56;101247.78;5019186;28;20590;-66
2023/09/11 08:36:00;;;;;;;15.05;5.57;;;;;;;32.33;27.19;101241.06;5020221;28;20479;-67
2023/09/11 08:38:26;;;;;;;16.17;5.63;;;;;;;32.21;26.75;101246.19;5022845;28;20057;-67
2023/09/11 08:40:54;;;;;;;10.07;5.43;;;;;;;32.26;27.27;101247.47;5021184;28;20098;-67
2023/09/11 08:43:24;;;;;;;9.75;5.53;;;;;;;32.23;26.73;101243.25;5015997;28;20045;-69
2023/09/11 08:45:50;;;;;;;23.55;6.57;;;;;;;31.70;26.86;101238.25;5018645;28;20136;-69
2023/09/11 08:48:17;;;;;;;15.70;5.90;;;;;;;31.55;27.23;101245.56;5017515;28;20049;-68
2023/09/11 08:51:00;;;;;;;10.82;5.75;;;;;;;31.06;28.31;101241.66;5020095;28;20499;-68
2023/09/11 08:53:27;;;;;;;13.35;5.53;;;;;;;31.14;28.93;101246.97;5038018;28;20045;-69
2023/09/11 08:55:55;;;;;;;14.30;6.18;;;;;;;31.18;28.89;101248.25;5019552;28;20565;-68
2023/09/11 08:58:21;;;;;;;17.75;6.40;;;;;;;30.34;29.73;101243.13;5018525;28;20057;-68
2023/09/11 09:00:47;;;;;;;11.35;5.85;;;;;;;30.43;29.17;101234.94;5035310;28;20041;-69
2023/09/11 09:03:13;;;;;;;9.52;5.53;;;;;;;29.93;30.80;101243.47;5020488;28;20052;-67
2023/09/11 09:05:40;;;;;;;12.90;6.60;;;;;;;29.47;31.08;101234.53;5021237;28;20435;-68
2023/09/11 09:08:08;;;;;;;9.60;4.95;;;;;;;29.38;31.60;101231.03;5015356;28;20399;-69
2023/09/11 09:10:33;;;;;;;12.93;6.72;;;;;;;29.67;31.02;101230.38;5018797;28;20034;-71
2023/09/11 09:13:00;;;;;;;11.40;6.20;;;;;;;29.73;31.48;101226.13;5014999;28;20105;-70
2023/09/11 09:15:29;;;;;;;11.80;5.57;;;;;;;29.83;32.19;101234.78;5035100;28;20018;-70
2023/09/11 09:17:55;;;;;;;14.23;6.70;;;;;;;30.41;30.64;101224.34;5016418;28;20037;-69
2023/09/11 09:20:21;;;;;;;15.43;6.95;;;;;;;30.33;30.33;101219.88;5020589;28;20043;-71
2023/09/11 09:22:58;;;;;;;15.55;6.45;;;;;;;30.05;31.44;101221.47;5017346;28;20053;-71
2023/09/11 09:25:25;;;;;;;10.30;5.88;;;;;;;30.57;30.66;101220.66;5019327;28;20041;-71
2023/09/11 09:27:53;;;;;;;13.75;6.25;;;;;;;30.22;30.23;101214.94;5019585;28;20044;-71
2023/09/11 09:30:27;;;;;;;12.00;6.40;;;;;;;29.41;31.53;101211.84;5019611;28;20036;-71
2023/09/11 09:32:53;;;;;;;10.82;6.10;;;;;;;29.07;32.68;101213.00;5017638;28;20043;-70
2023/09/11 09:35:21;;;;;;;12.02;6.28;;;;;;;29.04;32.98;101213.38;5020278;28;20033;-70
2023/09/11 09:37:59;;;;;;;10.73;6.00;;;;;;;29.55;31.79;101208.38;5015263;28;20049;-70
2023/09/11 09:40:41;;;;;;;13.05;6.78;;;;;;;30.05;32.44;101206.16;5029155;28;20033;-71
2023/09/11 09:43:22;;;;;;;12.25;5.70;;;;;;;30.35;30.66;101196.25;5019632;28;20131;-70
2023/09/11 09:46:00;;;;;;;18.60;6.22;;;;;;;30.32;30.36;101191.25;5016952;28;20049;-70
2023/09/11 09:48:43;;;;;;;12.40;5.27;;;;;;;29.99;30.68;101186.13;5016077;28;20056;-70
2023/09/11 09:51:08;;;;;;;8.98;5.45;;;;;;;29.93;30.90;101197.66;5022364;28;20306;-69
2023/09/11 09:53:42;;;;;;;9.63;5.70;;;;;;;29.84;31.47;101188.00;5009458;28;20388;-71
2023/09/11 09:56:28;;;;;;;6.80;5.57;;;;;;;29.83;31.87;101191.69;5007910;28;20033;-71
2023/09/11 09:59:01;;;;;;;11.38;5.35;;;;;;;30.46;31.11;101181.47;5020297;28;20044;-71
2023/09/11 10:01:42;;;;;;;8.20;5.07;;;;;;;30.39;31.72;101170.59;5020606;28;20021;-70
2023/09/11 10:04:33;;;;;;;12.02;5.53;;;;;;;30.76;31.58;101176.09;4992750;28;20514;-71
2023/09/11 10:07:01;;;;;;;11.27;5.22;;;;;;;31.05;30.96;101166.28;5018470;28;20153;-71
2023/09/11 10:09:42;;;;;;;;;;;;;;;;;;;;;
2023/09/11 10:12:15;;;;;;;11.15;5.65;;;;;;;30.38;30.40;101160.84;5015798;28;20832;-71
2023/09/11 10:14:48;;;;;;;9.02;4.82;;;;;;;30.44;30.35;101151.16;5000944;28;20048;-70
2023/09/11 10:17:16;;;;;;;8.32;4.55;;;;;;;30.47;30.53;101160.75;5011426;28;20039;-71
2023/09/11 10:20:05;;;;;;;8.13;4.90;;;;;;;30.71;29.64;101146.13;5011914;28;20036;-70
2023/09/11 10:22:33;;;;;;;6.90;5.25;;;;;;;31.35;29.06;101148.13;4994871;28;20053;-70
2023/09/11 10:25:09;;;;;;;12.10;5.22;;;;;;;31.82;28.38;101149.38;5024627;28;20078;-71
2023/09/11 10:27:43;;;;;;;;;;;;;;;31.35;28.39;101140.84;4998246;28;20436;-71
2023/09/11 10:30:35;;;;;;;7.63;4.75;;;;;;;31.06;28.73;101138.28;5001333;28;20303;-71
2023/09/11 10:33:30;;;;;;;8.63;5.03;;;;;;;31.08;29.65;101138.91;5015175;28;20037;-69
2023/09/11 10:36:07;;;;;;;12.55;4.63;;;;;;;31.93;29.64;101137.19;5001235;28;20072;-69
2023/09/11 10:39:11;;;;;;;;;;;;;;;;;;;;;
2023/09/11 10:41:56;;;;;;;10.23;4.90;;;;;;;32.46;28.55;101132.16;5015442;28;20025;-70
2023/09/11 10:44:45;;;;;;;7.38;4.00;;;;;;;32.23;26.21;101141.38;5000672;28;20052;-68
2023/09/11 10:47:35;;;;;;;15.50;4.20;;;;;;;32.40;28.11;101132.94;5019574;28;20033;-69
2023/09/11 10:50:36;;;;;;;11.93;5.25;;;;;;;32.83;26.77;101125.44;5021697;28;22203;-69
2023/09/11 10:53:45;;;;;;;7.60;4.40;;;;;;;32.18;26.37;101119.47;5015872;28;20178;-69
2023/09/11 10:56:23;;;;;;;8.80;5.13;;;;;;;31.95;27.99;101127.03;5026460;28;20112;-71
2023/09/11 10:59:14;;;;;;;13.40;5.25;;;;;;;31.97;27.85;101115.00;5001858;28;20644;-69
2023/09/11 11:02:17;;;;;;;7.43;4.57;;;;;;;31.93;27.12;101119.13;5015200;28;20035;-71
2023/09/11 11:05:33;;;;;;;12.52;6.15;;;;;;;31.32;27.88;101121.50;5011842;28;21268;-71
2023/09/11 11:08:01;;;;;;;8.27;5.45;;;;;;;31.29;28.75;101116.47;4991321;28;20254;-71
2023/09/11 11:10:38;;;;;;;18.70;5.93;;;;;;;31.48;28.27;101121.25;5014310;28;20029;-69
2023/09/11 11:13:26;;;;;;;10.02;5.30;;;;;;;31.75;28.74;101124.16;4999465;28;20106;-70
2023/09/11 11:16:30;;;;;;;;;;;;;;;;;;;;;
2023/09/11 11:19:23;;;;;;;7.72;5.25;;;;;;;31.77;28.88;101117.53;5009293;28;20414;-72
2023/09/11 11:22:09;;;;;;;9.50;4.10;;;;;;;32.18;28.57;101115.94;5014577;28;20116;-69
2023/09/11 11:25:08;;;;;;;;;;;;;;;;;;;;;
2023/09/11 11:30:39;;;;;;;15.85;4.60;;;;;;;32.47;27.72;101114.03;5014640;28;20045;-71
2023/09/11 11:33:14;;;;;;;7.22;4.70;;;;;;;32.43;27.74;101114.44;4990422;28;20251;-71